sensor_id;sensor_type;location;lat;lon;timestamp;P1;durP1;ratioP1;P2;durP2;ratioP2
7471;SDS011;3777;48.722;8.110;2022-10-22T00:01:51;2.37;;;1.00;;
7471;SDS011;3777;48.722;8.110;2022-10-22T00:04:18;1.17;;;1.03;;
7471;SDS011;3777;48.722;8.110;2022-10-22T00:06:46;1.50;;;0.93;;
7471;SDS011;3777;48.722;8.110;2022-10-22T00:09:13;2.10;;;1.20;;
7471;SDS011;3777;48.722;8.110;2022-10-22T00:11:41;3.77;;;1.10;;
7471;SDS011;3777;48.722;8.110;2022-10-22T00:14:08;2.53;;;1.10;;
7471;SDS011;3777;48.722;8.110;2022-10-22T00:16:35;4.30;;;1.20;;
7471;SDS011;3777;48.722;8.110;2022-10-22T00:19:02;3.13;;;1.07;;
7471;SDS011;3777;48.722;8.110;2022-10-22T00:21:29;2.03;;;1.07;;
7471;SDS011;3777;48.722;8.110;2022-10-22T00:23:57;1.03;;;1.00;;
7471;SDS011;3777;48.722;8.110;2022-10-22T00:26:24;2.63;;;1.10;;
7471;SDS011;3777;48.722;8.110;2022-10-22T00:28:51;2.53;;;0.90;;
7471;SDS011;3777;48.722;8.110;2022-10-22T00:31:18;2.17;;;1.00;;
7471;SDS011;3777;48.722;8.110;2022-10-22T00:33:45;1.83;;;1.03;;
7471;SDS011;3777;48.722;8.110;2022-10-22T00:36:13;2.53;;;1.00;;
7471;SDS011;3777;48.722;8.110;2022-10-22T00:38:40;1.00;;;0.90;;
7471;SDS011;3777;48.722;8.110;2022-10-22T00:41:09;2.33;;;1.13;;
7471;SDS011;3777;48.722;8.110;2022-10-22T00:46:19;2.67;;;1.20;;
7471;SDS011;3777;48.722;8.110;2022-10-22T00:48:45;1.50;;;1.00;;
7471;SDS011;3777;48.722;8.110;2022-10-22T00:51:12;2.77;;;1.27;;
7471;SDS011;3777;48.722;8.110;2022-10-22T00:53:40;1.20;;;1.10;;
7471;SDS011;3777;48.722;8.110;2022-10-22T00:56:12;1.37;;;1.10;;
7471;SDS011;3777;48.722;8.110;2022-10-22T00:58:40;1.50;;;1.20;;
7471;SDS011;3777;48.722;8.110;2022-10-22T01:01:12;3.33;;;1.20;;
7471;SDS011;3777;48.722;8.110;2022-10-22T01:03:44;1.13;;;1.00;;
7471;SDS011;3777;48.722;8.110;2022-10-22T01:06:21;3.10;;;1.00;;
7471;SDS011;3777;48.722;8.110;2022-10-22T01:08:53;3.00;;;1.20;;
7471;SDS011;3777;48.722;8.110;2022-10-22T01:11:32;2.27;;;1.10;;
7471;SDS011;3777;48.722;8.110;2022-10-22T01:14:09;1.53;;;1.00;;
7471;SDS011;3777;48.722;8.110;2022-10-22T01:16:45;1.33;;;1.23;;
7471;SDS011;3777;48.722;8.110;2022-10-22T01:22:17;2.30;;;1.10;;
7471;SDS011;3777;48.722;8.110;2022-10-22T01:24:52;4.13;;;1.40;;
7471;SDS011;3777;48.722;8.110;2022-10-22T01:27:28;1.50;;;1.17;;
7471;SDS011;3777;48.722;8.110;2022-10-22T01:30:02;1.37;;;1.10;;
7471;SDS011;3777;48.722;8.110;2022-10-22T01:32:32;1.90;;;1.50;;
7471;SDS011;3777;48.722;8.110;2022-10-22T01:35:04;2.50;;;1.60;;
7471;SDS011;3777;48.722;8.110;2022-10-22T01:37:35;3.63;;;1.47;;
7471;SDS011;3777;48.722;8.110;2022-10-22T01:40:08;4.57;;;1.40;;
7471;SDS011;3777;48.722;8.110;2022-10-22T01:42:37;2.60;;;1.20;;
7471;SDS011;3777;48.722;8.110;2022-10-22T01:45:11;3.37;;;1.30;;
7471;SDS011;3777;48.722;8.110;2022-10-22T01:47:40;2.50;;;1.27;;
7471;SDS011;3777;48.722;8.110;2022-10-22T01:50:23;4.20;;;1.63;;
7471;SDS011;3777;48.722;8.110;2022-10-22T01:53:09;3.37;;;1.40;;
7471;SDS011;3777;48.722;8.110;2022-10-22T01:55:46;2.83;;;1.23;;
7471;SDS011;3777;48.722;8.110;2022-10-22T01:58:29;3.33;;;1.50;;
7471;SDS011;3777;48.722;8.110;2022-10-22T02:01:06;4.03;;;1.50;;
7471;SDS011;3777;48.722;8.110;2022-10-22T02:03:42;4.27;;;1.60;;
7471;SDS011;3777;48.722;8.110;2022-10-22T02:06:14;3.33;;;1.50;;
7471;SDS011;3777;48.722;8.110;2022-10-22T02:08:44;4.33;;;1.77;;
7471;SDS011;3777;48.722;8.110;2022-10-22T02:11:13;1.63;;;1.40;;
7471;SDS011;3777;48.722;8.110;2022-10-22T02:13:42;3.40;;;1.60;;
7471;SDS011;3777;48.722;8.110;2022-10-22T02:16:13;3.03;;;1.67;;
7471;SDS011;3777;48.722;8.110;2022-10-22T02:18:44;2.33;;;1.60;;
7471;SDS011;3777;48.722;8.110;2022-10-22T02:21:14;4.07;;;1.67;;
7471;SDS011;3777;48.722;8.110;2022-10-22T02:23:41;2.87;;;1.57;;
7471;SDS011;3777;48.722;8.110;2022-10-22T02:26:13;2.97;;;1.60;;
7471;SDS011;3777;48.722;8.110;2022-10-22T02:28:51;1.40;;;1.30;;
7471;SDS011;3777;48.722;8.110;2022-10-22T02:31:25;4.20;;;1.40;;
7471;SDS011;3777;48.722;8.110;2022-10-22T02:33:55;3.40;;;1.53;;
7471;SDS011;3777;48.722;8.110;2022-10-22T02:36:26;3.60;;;1.40;;
7471;SDS011;3777;48.722;8.110;2022-10-22T02:38:53;3.17;;;1.33;;
7471;SDS011;3777;48.722;8.110;2022-10-22T02:41:21;1.53;;;1.40;;
7471;SDS011;3777;48.722;8.110;2022-10-22T02:43:49;1.70;;;1.43;;
7471;SDS011;3777;48.722;8.110;2022-10-22T02:46:19;2.53;;;1.50;;
7471;SDS011;3777;48.722;8.110;2022-10-22T02:48:48;1.80;;;1.10;;
7471;SDS011;3777;48.722;8.110;2022-10-22T02:51:15;1.70;;;1.20;;
7471;SDS011;3777;48.722;8.110;2022-10-22T02:53:42;2.23;;;1.40;;
7471;SDS011;3777;48.722;8.110;2022-10-22T02:56:09;2.60;;;1.30;;
7471;SDS011;3777;48.722;8.110;2022-10-22T02:58:35;2.93;;;1.40;;
7471;SDS011;3777;48.722;8.110;2022-10-22T03:01:02;3.20;;;1.40;;
7471;SDS011;3777;48.722;8.110;2022-10-22T03:03:29;2.83;;;1.30;;
7471;SDS011;3777;48.722;8.110;2022-10-22T03:05:58;2.87;;;1.20;;
7471;SDS011;3777;48.722;8.110;2022-10-22T03:08:25;1.30;;;1.20;;
7471;SDS011;3777;48.722;8.110;2022-10-22T03:10:52;2.73;;;1.27;;
7471;SDS011;3777;48.722;8.110;2022-10-22T03:13:18;1.73;;;1.10;;
7471;SDS011;3777;48.722;8.110;2022-10-22T03:15:47;1.90;;;1.20;;
7471;SDS011;3777;48.722;8.110;2022-10-22T03:18:14;2.20;;;1.23;;
7471;SDS011;3777;48.722;8.110;2022-10-22T03:20:41;1.40;;;1.30;;
7471;SDS011;3777;48.722;8.110;2022-10-22T03:23:10;2.60;;;1.40;;
7471;SDS011;3777;48.722;8.110;2022-10-22T03:25:38;2.87;;;1.50;;
7471;SDS011;3777;48.722;8.110;2022-10-22T03:28:09;3.23;;;1.50;;
7471;SDS011;3777;48.722;8.110;2022-10-22T03:30:38;3.20;;;1.33;;
7471;SDS011;3777;48.722;8.110;2022-10-22T03:33:05;3.33;;;1.40;;
7471;SDS011;3777;48.722;8.110;2022-10-22T03:35:32;1.20;;;1.10;;
7471;SDS011;3777;48.722;8.110;2022-10-22T03:38:04;3.43;;;1.50;;
7471;SDS011;3777;48.722;8.110;2022-10-22T03:40:32;3.40;;;1.53;;
7471;SDS011;3777;48.722;8.110;2022-10-22T03:42:59;3.53;;;1.70;;
7471;SDS011;3777;48.722;8.110;2022-10-22T03:45:26;2.80;;;1.50;;
7471;SDS011;3777;48.722;8.110;2022-10-22T03:47:53;2.03;;;1.30;;
7471;SDS011;3777;48.722;8.110;2022-10-22T03:50:20;2.00;;;1.20;;
7471;SDS011;3777;48.722;8.110;2022-10-22T03:52:47;1.87;;;1.20;;
7471;SDS011;3777;48.722;8.110;2022-10-22T03:55:14;2.50;;;1.33;;
7471;SDS011;3777;48.722;8.110;2022-10-22T03:57:42;2.67;;;1.10;;
7471;SDS011;3777;48.722;8.110;2022-10-22T04:00:09;1.70;;;1.33;;
7471;SDS011;3777;48.722;8.110;2022-10-22T04:02:37;2.17;;;1.30;;
7471;SDS011;3777;48.722;8.110;2022-10-22T04:05:04;2.23;;;1.40;;
7471;SDS011;3777;48.722;8.110;2022-10-22T04:07:31;2.83;;;1.40;;
7471;SDS011;3777;48.722;8.110;2022-10-22T04:09:59;2.27;;;1.53;;
7471;SDS011;3777;48.722;8.110;2022-10-22T04:12:25;2.13;;;1.33;;
7471;SDS011;3777;48.722;8.110;2022-10-22T04:14:54;2.03;;;1.37;;
7471;SDS011;3777;48.722;8.110;2022-10-22T04:17:21;1.23;;;1.10;;
7471;SDS011;3777;48.722;8.110;2022-10-22T04:19:48;3.10;;;1.40;;
7471;SDS011;3777;48.722;8.110;2022-10-22T04:22:15;2.20;;;1.40;;
7471;SDS011;3777;48.722;8.110;2022-10-22T04:24:41;5.13;;;1.37;;
7471;SDS011;3777;48.722;8.110;2022-10-22T04:27:08;2.30;;;1.30;;
7471;SDS011;3777;48.722;8.110;2022-10-22T04:29:35;4.27;;;1.50;;
7471;SDS011;3777;48.722;8.110;2022-10-22T04:32:04;2.30;;;1.23;;
7471;SDS011;3777;48.722;8.110;2022-10-22T04:34:31;1.50;;;1.20;;
7471;SDS011;3777;48.722;8.110;2022-10-22T04:36:58;2.83;;;1.40;;
7471;SDS011;3777;48.722;8.110;2022-10-22T04:39:25;4.10;;;1.40;;
7471;SDS011;3777;48.722;8.110;2022-10-22T04:41:51;2.37;;;1.40;;
7471;SDS011;3777;48.722;8.110;2022-10-22T04:44:18;3.53;;;1.47;;
7471;SDS011;3777;48.722;8.110;2022-10-22T04:46:45;2.93;;;1.37;;
7471;SDS011;3777;48.722;8.110;2022-10-22T04:49:14;1.60;;;1.50;;
7471;SDS011;3777;48.722;8.110;2022-10-22T04:51:41;2.40;;;1.37;;
7471;SDS011;3777;48.722;8.110;2022-10-22T04:54:07;1.53;;;1.33;;
7471;SDS011;3777;48.722;8.110;2022-10-22T04:56:34;1.70;;;1.30;;
7471;SDS011;3777;48.722;8.110;2022-10-22T04:59:02;4.13;;;1.23;;
7471;SDS011;3777;48.722;8.110;2022-10-22T05:01:31;1.60;;;1.30;;
7471;SDS011;3777;48.722;8.110;2022-10-22T05:04:00;1.67;;;1.40;;
7471;SDS011;3777;48.722;8.110;2022-10-22T05:06:31;2.73;;;1.40;;
7471;SDS011;3777;48.722;8.110;2022-10-22T05:09:00;4.90;;;1.50;;
7471;SDS011;3777;48.722;8.110;2022-10-22T05:11:30;2.30;;;1.40;;
7471;SDS011;3777;48.722;8.110;2022-10-22T05:13:59;4.17;;;1.40;;
7471;SDS011;3777;48.722;8.110;2022-10-22T05:16:28;1.73;;;1.50;;
7471;SDS011;3777;48.722;8.110;2022-10-22T05:18:56;1.97;;;1.47;;
7471;SDS011;3777;48.722;8.110;2022-10-22T05:21:24;2.23;;;1.70;;
7471;SDS011;3777;48.722;8.110;2022-10-22T05:23:54;3.20;;;1.83;;
7471;SDS011;3777;48.722;8.110;2022-10-22T05:26:24;3.20;;;1.60;;
7471;SDS011;3777;48.722;8.110;2022-10-22T05:28:52;3.00;;;1.70;;
7471;SDS011;3777;48.722;8.110;2022-10-22T05:31:19;2.37;;;1.80;;
7471;SDS011;3777;48.722;8.110;2022-10-22T05:33:46;3.57;;;2.20;;
7471;SDS011;3777;48.722;8.110;2022-10-22T05:36:14;2.33;;;1.90;;
7471;SDS011;3777;48.722;8.110;2022-10-22T05:38:43;3.60;;;1.90;;
7471;SDS011;3777;48.722;8.110;2022-10-22T05:41:12;3.00;;;1.80;;
7471;SDS011;3777;48.722;8.110;2022-10-22T05:43:40;1.93;;;1.50;;
7471;SDS011;3777;48.722;8.110;2022-10-22T05:46:07;3.50;;;1.80;;
7471;SDS011;3777;48.722;8.110;2022-10-22T05:48:36;4.83;;;1.60;;
7471;SDS011;3777;48.722;8.110;2022-10-22T05:51:03;1.60;;;1.40;;
7471;SDS011;3777;48.722;8.110;2022-10-22T05:53:32;3.23;;;1.40;;
7471;SDS011;3777;48.722;8.110;2022-10-22T05:56:00;2.27;;;1.33;;
7471;SDS011;3777;48.722;8.110;2022-10-22T05:58:29;2.60;;;1.40;;
7471;SDS011;3777;48.722;8.110;2022-10-22T06:01:00;1.70;;;1.60;;
7471;SDS011;3777;48.722;8.110;2022-10-22T06:03:28;3.63;;;1.67;;
7471;SDS011;3777;48.722;8.110;2022-10-22T06:05:56;3.03;;;1.83;;
7471;SDS011;3777;48.722;8.110;2022-10-22T06:08:24;2.13;;;1.93;;
7471;SDS011;3777;48.722;8.110;2022-10-22T06:10:52;2.50;;;2.10;;
7471;SDS011;3777;48.722;8.110;2022-10-22T06:13:19;2.60;;;2.40;;
7471;SDS011;3777;48.722;8.110;2022-10-22T06:15:48;3.20;;;2.40;;
7471;SDS011;3777;48.722;8.110;2022-10-22T06:18:16;5.57;;;2.60;;
7471;SDS011;3777;48.722;8.110;2022-10-22T06:20:43;3.60;;;2.50;;
7471;SDS011;3777;48.722;8.110;2022-10-22T06:23:11;4.57;;;2.50;;
7471;SDS011;3777;48.722;8.110;2022-10-22T06:25:38;3.63;;;2.90;;
7471;SDS011;3777;48.722;8.110;2022-10-22T06:28:05;3.30;;;3.00;;
7471;SDS011;3777;48.722;8.110;2022-10-22T06:30:32;5.40;;;3.63;;
7471;SDS011;3777;48.722;8.110;2022-10-22T06:33:00;3.53;;;3.23;;
7471;SDS011;3777;48.722;8.110;2022-10-22T06:35:27;4.63;;;3.60;;
7471;SDS011;3777;48.722;8.110;2022-10-22T06:37:54;3.27;;;2.97;;
7471;SDS011;3777;48.722;8.110;2022-10-22T06:40:21;3.90;;;3.00;;
7471;SDS011;3777;48.722;8.110;2022-10-22T06:42:48;3.67;;;2.70;;
7471;SDS011;3777;48.722;8.110;2022-10-22T06:45:15;3.10;;;2.40;;
7471;SDS011;3777;48.722;8.110;2022-10-22T06:47:42;4.87;;;2.43;;
7471;SDS011;3777;48.722;8.110;2022-10-22T06:50:12;3.77;;;2.33;;
7471;SDS011;3777;48.722;8.110;2022-10-22T06:52:39;2.27;;;2.00;;
7471;SDS011;3777;48.722;8.110;2022-10-22T06:55:06;3.63;;;2.10;;
7471;SDS011;3777;48.722;8.110;2022-10-22T06:57:33;2.20;;;2.00;;
7471;SDS011;3777;48.722;8.110;2022-10-22T07:00:00;2.33;;;2.13;;
7471;SDS011;3777;48.722;8.110;2022-10-22T07:02:27;4.87;;;2.10;;
7471;SDS011;3777;48.722;8.110;2022-10-22T07:04:54;3.33;;;2.07;;
7471;SDS011;3777;48.722;8.110;2022-10-22T07:07:22;4.13;;;1.60;;
7471;SDS011;3777;48.722;8.110;2022-10-22T07:09:49;1.87;;;1.60;;
7471;SDS011;3777;48.722;8.110;2022-10-22T07:12:16;3.70;;;1.70;;
7471;SDS011;3777;48.722;8.110;2022-10-22T07:14:43;2.27;;;1.43;;
7471;SDS011;3777;48.722;8.110;2022-10-22T07:17:10;3.40;;;1.60;;
7471;SDS011;3777;48.722;8.110;2022-10-22T07:19:37;3.47;;;2.07;;
7471;SDS011;3777;48.722;8.110;2022-10-22T07:22:03;4.97;;;2.83;;
7471;SDS011;3777;48.722;8.110;2022-10-22T07:24:32;4.17;;;2.33;;
7471;SDS011;3777;48.722;8.110;2022-10-22T07:26:59;5.80;;;2.47;;
7471;SDS011;3777;48.722;8.110;2022-10-22T07:29:26;7.63;;;2.70;;
7471;SDS011;3777;48.722;8.110;2022-10-22T07:31:53;2.67;;;2.17;;
7471;SDS011;3777;48.722;8.110;2022-10-22T07:34:20;6.07;;;2.83;;
7471;SDS011;3777;48.722;8.110;2022-10-22T07:36:47;7.60;;;2.80;;
7471;SDS011;3777;48.722;8.110;2022-10-22T07:39:14;3.70;;;1.90;;
7471;SDS011;3777;48.722;8.110;2022-10-22T07:41:42;3.57;;;2.27;;
7471;SDS011;3777;48.722;8.110;2022-10-22T07:44:09;4.67;;;2.03;;
7471;SDS011;3777;48.722;8.110;2022-10-22T07:46:36;2.50;;;1.80;;
7471;SDS011;3777;48.722;8.110;2022-10-22T07:49:03;3.90;;;1.97;;
7471;SDS011;3777;48.722;8.110;2022-10-22T07:51:30;4.03;;;2.00;;
7471;SDS011;3777;48.722;8.110;2022-10-22T07:53:57;2.97;;;1.70;;
7471;SDS011;3777;48.722;8.110;2022-10-22T07:56:24;3.97;;;2.20;;
7471;SDS011;3777;48.722;8.110;2022-10-22T07:58:52;3.70;;;1.87;;
7471;SDS011;3777;48.722;8.110;2022-10-22T08:01:19;2.17;;;1.50;;
7471;SDS011;3777;48.722;8.110;2022-10-22T08:03:46;4.10;;;1.40;;
7471;SDS011;3777;48.722;8.110;2022-10-22T08:06:13;5.00;;;1.50;;
7471;SDS011;3777;48.722;8.110;2022-10-22T08:08:40;4.63;;;1.80;;
7471;SDS011;3777;48.722;8.110;2022-10-22T08:11:08;1.50;;;1.33;;
7471;SDS011;3777;48.722;8.110;2022-10-22T08:13:35;2.67;;;1.53;;
7471;SDS011;3777;48.722;8.110;2022-10-22T08:16:04;4.30;;;1.67;;
7471;SDS011;3777;48.722;8.110;2022-10-22T08:18:32;3.90;;;1.93;;
7471;SDS011;3777;48.722;8.110;2022-10-22T08:20:58;3.10;;;1.67;;
7471;SDS011;3777;48.722;8.110;2022-10-22T08:23:25;3.10;;;1.60;;
7471;SDS011;3777;48.722;8.110;2022-10-22T08:25:53;4.23;;;1.80;;
7471;SDS011;3777;48.722;8.110;2022-10-22T08:28:20;4.97;;;1.50;;
7471;SDS011;3777;48.722;8.110;2022-10-22T08:30:47;3.50;;;1.60;;
7471;SDS011;3777;48.722;8.110;2022-10-22T08:33:15;2.43;;;1.70;;
7471;SDS011;3777;48.722;8.110;2022-10-22T08:35:46;4.27;;;1.73;;
7471;SDS011;3777;48.722;8.110;2022-10-22T08:38:13;6.40;;;2.20;;
7471;SDS011;3777;48.722;8.110;2022-10-22T08:40:41;3.20;;;1.93;;
7471;SDS011;3777;48.722;8.110;2022-10-22T08:43:16;4.90;;;2.17;;
7471;SDS011;3777;48.722;8.110;2022-10-22T08:46:12;4.20;;;1.67;;
7471;SDS011;3777;48.722;8.110;2022-10-22T08:48:48;2.37;;;1.40;;
7471;SDS011;3777;48.722;8.110;2022-10-22T08:51:18;1.97;;;1.30;;
7471;SDS011;3777;48.722;8.110;2022-10-22T08:53:50;3.00;;;1.33;;
7471;SDS011;3777;48.722;8.110;2022-10-22T08:56:30;2.63;;;1.40;;
7471;SDS011;3777;48.722;8.110;2022-10-22T08:59:01;2.03;;;1.10;;
7471;SDS011;3777;48.722;8.110;2022-10-22T09:01:35;1.40;;;1.10;;
7471;SDS011;3777;48.722;8.110;2022-10-22T09:04:06;1.80;;;1.30;;
7471;SDS011;3777;48.722;8.110;2022-10-22T09:06:40;2.27;;;1.20;;
7471;SDS011;3777;48.722;8.110;2022-10-22T09:09:08;3.40;;;1.30;;
7471;SDS011;3777;48.722;8.110;2022-10-22T09:11:38;3.10;;;1.10;;
7471;SDS011;3777;48.722;8.110;2022-10-22T09:14:08;1.87;;;1.30;;
7471;SDS011;3777;48.722;8.110;2022-10-22T09:16:42;2.40;;;1.17;;
7471;SDS011;3777;48.722;8.110;2022-10-22T09:19:30;1.98;;;1.38;;
7471;SDS011;3777;48.722;8.110;2022-10-22T09:22:01;1.10;;;1.00;;
7471;SDS011;3777;48.722;8.110;2022-10-22T09:24:38;3.30;;;1.25;;
7471;SDS011;3777;48.722;8.110;2022-10-22T09:27:10;1.88;;;1.10;;
7471;SDS011;3777;48.722;8.110;2022-10-22T09:29:39;2.90;;;1.30;;
7471;SDS011;3777;48.722;8.110;2022-10-22T09:32:06;1.20;;;1.10;;
7471;SDS011;3777;48.722;8.110;2022-10-22T09:34:35;1.95;;;1.00;;
7471;SDS011;3777;48.722;8.110;2022-10-22T09:37:03;1.15;;;1.00;;
7471;SDS011;3777;48.722;8.110;2022-10-22T09:39:33;1.60;;;0.90;;
7471;SDS011;3777;48.722;8.110;2022-10-22T09:42:02;2.03;;;1.05;;
7471;SDS011;3777;48.722;8.110;2022-10-22T09:44:30;5.63;;;1.42;;
7471;SDS011;3777;48.722;8.110;2022-10-22T09:46:59;1.40;;;0.93;;
7471;SDS011;3777;48.722;8.110;2022-10-22T09:49:29;1.65;;;1.13;;
7471;SDS011;3777;48.722;8.110;2022-10-22T09:52:00;2.35;;;1.30;;
7471;SDS011;3777;48.722;8.110;2022-10-22T09:54:36;2.35;;;1.20;;
7471;SDS011;3777;48.722;8.110;2022-10-22T09:57:09;2.30;;;1.10;;
7471;SDS011;3777;48.722;8.110;2022-10-22T09:59:41;3.15;;;1.20;;
7471;SDS011;3777;48.722;8.110;2022-10-22T10:02:11;1.40;;;1.10;;
7471;SDS011;3777;48.722;8.110;2022-10-22T10:04:40;1.55;;;1.20;;
7471;SDS011;3777;48.722;8.110;2022-10-22T10:07:16;4.45;;;1.30;;
7471;SDS011;3777;48.722;8.110;2022-10-22T10:09:45;2.72;;;1.20;;
7471;SDS011;3777;48.722;8.110;2022-10-22T10:12:15;2.10;;;1.13;;
7471;SDS011;3777;48.722;8.110;2022-10-22T10:14:56;2.38;;;1.20;;
7471;SDS011;3777;48.722;8.110;2022-10-22T10:17:35;3.20;;;1.20;;
7471;SDS011;3777;48.722;8.110;2022-10-22T10:20:12;2.95;;;1.25;;
7471;SDS011;3777;48.722;8.110;2022-10-22T10:22:52;2.22;;;1.13;;
7471;SDS011;3777;48.722;8.110;2022-10-22T10:25:30;2.13;;;1.20;;
7471;SDS011;3777;48.722;8.110;2022-10-22T10:28:14;1.17;;;1.05;;
7471;SDS011;3777;48.722;8.110;2022-10-22T10:30:48;2.17;;;1.50;;
7471;SDS011;3777;48.722;8.110;2022-10-22T10:33:24;1.58;;;1.10;;
7471;SDS011;3777;48.722;8.110;2022-10-22T10:36:00;2.38;;;1.27;;
7471;SDS011;3777;48.722;8.110;2022-10-22T10:38:36;1.45;;;1.00;;
7471;SDS011;3777;48.722;8.110;2022-10-22T10:41:18;2.15;;;1.05;;
7471;SDS011;3777;48.722;8.110;2022-10-22T10:43:58;2.45;;;1.33;;
7471;SDS011;3777;48.722;8.110;2022-10-22T10:46:46;4.20;;;1.48;;
7471;SDS011;3777;48.722;8.110;2022-10-22T10:49:22;1.48;;;1.02;;
7471;SDS011;3777;48.722;8.110;2022-10-22T10:51:52;2.17;;;1.20;;
7471;SDS011;3777;48.722;8.110;2022-10-22T10:54:32;1.80;;;1.20;;
7471;SDS011;3777;48.722;8.110;2022-10-22T10:57:09;1.65;;;1.25;;
7471;SDS011;3777;48.722;8.110;2022-10-22T10:59:48;3.83;;;1.23;;
7471;SDS011;3777;48.722;8.110;2022-10-22T11:05:50;2.35;;;1.20;;
7471;SDS011;3777;48.722;8.110;2022-10-22T11:08:19;3.35;;;1.40;;
7471;SDS011;3777;48.722;8.110;2022-10-22T11:10:52;2.30;;;1.33;;
7471;SDS011;3777;48.722;8.110;2022-10-22T11:13:25;4.35;;;1.55;;
7471;SDS011;3777;48.722;8.110;2022-10-22T11:15:58;3.85;;;1.40;;
7471;SDS011;3777;48.722;8.110;2022-10-22T11:18:29;2.13;;;1.33;;
7471;SDS011;3777;48.722;8.110;2022-10-22T11:21:12;2.03;;;1.50;;
7471;SDS011;3777;48.722;8.110;2022-10-22T11:23:45;3.55;;;1.40;;
7471;SDS011;3777;48.722;8.110;2022-10-22T11:26:18;2.78;;;1.20;;
7471;SDS011;3777;48.722;8.110;2022-10-22T11:28:54;3.60;;;1.45;;
7471;SDS011;3777;48.722;8.110;2022-10-22T11:31:24;4.03;;;1.38;;
7471;SDS011;3777;48.722;8.110;2022-10-22T11:33:52;5.22;;;1.40;;
7471;SDS011;3777;48.722;8.110;2022-10-22T11:36:23;3.53;;;1.50;;
7471;SDS011;3777;48.722;8.110;2022-10-22T11:38:52;2.13;;;1.40;;
7471;SDS011;3777;48.722;8.110;2022-10-22T11:41:22;2.45;;;1.55;;
7471;SDS011;3777;48.722;8.110;2022-10-22T11:44:04;3.70;;;1.50;;
7471;SDS011;3777;48.722;8.110;2022-10-22T11:46:38;3.10;;;1.33;;
7471;SDS011;3777;48.722;8.110;2022-10-22T11:49:16;2.95;;;1.48;;
7471;SDS011;3777;48.722;8.110;2022-10-22T11:51:47;1.58;;;1.30;;
7471;SDS011;3777;48.722;8.110;2022-10-22T11:54:25;2.15;;;1.35;;
7471;SDS011;3777;48.722;8.110;2022-10-22T11:57:21;1.95;;;1.30;;
7471;SDS011;3777;48.722;8.110;2022-10-22T11:59:53;2.20;;;1.30;;
7471;SDS011;3777;48.722;8.110;2022-10-22T12:08:22;4.43;;;1.40;;
7471;SDS011;3777;48.722;8.110;2022-10-22T12:11:04;4.22;;;1.63;;
7471;SDS011;3777;48.722;8.110;2022-10-22T12:16:39;3.15;;;1.50;;
7471;SDS011;3777;48.722;8.110;2022-10-22T12:19:11;3.13;;;1.40;;
7471;SDS011;3777;48.722;8.110;2022-10-22T12:21:42;3.47;;;1.40;;
7471;SDS011;3777;48.722;8.110;2022-10-22T12:24:14;4.55;;;1.85;;
7471;SDS011;3777;48.722;8.110;2022-10-22T12:26:44;3.55;;;1.52;;
7471;SDS011;3777;48.722;8.110;2022-10-22T12:29:15;5.63;;;1.50;;
7471;SDS011;3777;48.722;8.110;2022-10-22T12:31:44;3.63;;;1.40;;
7471;SDS011;3777;48.722;8.110;2022-10-22T12:34:13;2.72;;;1.52;;
7471;SDS011;3777;48.722;8.110;2022-10-22T12:36:42;4.18;;;1.67;;
7471;SDS011;3777;48.722;8.110;2022-10-22T12:39:10;2.50;;;1.30;;
7471;SDS011;3777;48.722;8.110;2022-10-22T12:41:39;1.95;;;1.27;;
7471;SDS011;3777;48.722;8.110;2022-10-22T12:44:09;5.60;;;1.75;;
7471;SDS011;3777;48.722;8.110;2022-10-22T12:46:38;2.45;;;1.45;;
7471;SDS011;3777;48.722;8.110;2022-10-22T12:49:07;5.43;;;1.70;;
7471;SDS011;3777;48.722;8.110;2022-10-22T12:51:39;2.83;;;1.60;;
7471;SDS011;3777;48.722;8.110;2022-10-22T12:54:07;3.35;;;1.85;;
7471;SDS011;3777;48.722;8.110;2022-10-22T12:56:40;3.05;;;1.73;;
7471;SDS011;3777;48.722;8.110;2022-10-22T12:59:11;2.80;;;1.50;;
7471;SDS011;3777;48.722;8.110;2022-10-22T13:01:47;2.88;;;1.40;;
7471;SDS011;3777;48.722;8.110;2022-10-22T13:04:19;5.50;;;2.00;;
7471;SDS011;3777;48.722;8.110;2022-10-22T13:07:03;2.35;;;1.50;;
7471;SDS011;3777;48.722;8.110;2022-10-22T13:09:43;2.40;;;1.50;;
7471;SDS011;3777;48.722;8.110;2022-10-22T13:12:12;3.42;;;1.50;;
7471;SDS011;3777;48.722;8.110;2022-10-22T13:14:41;3.60;;;1.40;;
7471;SDS011;3777;48.722;8.110;2022-10-22T13:17:12;3.97;;;1.77;;
7471;SDS011;3777;48.722;8.110;2022-10-22T13:19:43;2.25;;;1.48;;
7471;SDS011;3777;48.722;8.110;2022-10-22T13:22:28;5.60;;;1.70;;
7471;SDS011;3777;48.722;8.110;2022-10-22T13:24:58;2.67;;;1.50;;
7471;SDS011;3777;48.722;8.110;2022-10-22T13:27:45;4.10;;;1.30;;
7471;SDS011;3777;48.722;8.110;2022-10-22T13:30:16;4.00;;;1.60;;
7471;SDS011;3777;48.722;8.110;2022-10-22T13:32:49;3.50;;;1.38;;
7471;SDS011;3777;48.722;8.110;2022-10-22T13:35:19;3.83;;;1.40;;
7471;SDS011;3777;48.722;8.110;2022-10-22T13:37:49;4.80;;;1.63;;
7471;SDS011;3777;48.722;8.110;2022-10-22T13:40:16;3.50;;;1.52;;
7471;SDS011;3777;48.722;8.110;2022-10-22T13:42:43;3.47;;;1.35;;
7471;SDS011;3777;48.722;8.110;2022-10-22T13:45:10;3.85;;;1.30;;
7471;SDS011;3777;48.722;8.110;2022-10-22T13:47:38;2.58;;;1.23;;
7471;SDS011;3777;48.722;8.110;2022-10-22T13:50:10;3.17;;;1.50;;
7471;SDS011;3777;48.722;8.110;2022-10-22T13:52:39;3.45;;;1.38;;
7471;SDS011;3777;48.722;8.110;2022-10-22T13:55:13;3.80;;;1.83;;
7471;SDS011;3777;48.722;8.110;2022-10-22T13:57:42;3.40;;;1.40;;
7471;SDS011;3777;48.722;8.110;2022-10-22T14:00:11;3.55;;;1.50;;
7471;SDS011;3777;48.722;8.110;2022-10-22T14:02:39;3.38;;;1.60;;
7471;SDS011;3777;48.722;8.110;2022-10-22T14:05:08;3.40;;;1.20;;
7471;SDS011;3777;48.722;8.110;2022-10-22T14:07:36;3.80;;;1.50;;
7471;SDS011;3777;48.722;8.110;2022-10-22T14:10:08;5.05;;;1.88;;
7471;SDS011;3777;48.722;8.110;2022-10-22T14:12:40;3.95;;;1.38;;
7471;SDS011;3777;48.722;8.110;2022-10-22T14:15:08;5.53;;;1.65;;
7471;SDS011;3777;48.722;8.110;2022-10-22T14:17:37;6.90;;;1.70;;
7471;SDS011;3777;48.722;8.110;2022-10-22T14:20:05;4.07;;;1.50;;
7471;SDS011;3777;48.722;8.110;2022-10-22T14:22:34;2.85;;;1.60;;
7471;SDS011;3777;48.722;8.110;2022-10-22T14:25:00;2.65;;;1.50;;
7471;SDS011;3777;48.722;8.110;2022-10-22T14:27:27;4.45;;;1.50;;
7471;SDS011;3777;48.722;8.110;2022-10-22T14:29:54;2.58;;;1.58;;
7471;SDS011;3777;48.722;8.110;2022-10-22T14:32:21;3.38;;;1.50;;
7471;SDS011;3777;48.722;8.110;2022-10-22T14:34:48;3.22;;;1.38;;
7471;SDS011;3777;48.722;8.110;2022-10-22T14:37:16;4.47;;;1.60;;
7471;SDS011;3777;48.722;8.110;2022-10-22T14:39:46;3.22;;;1.52;;
7471;SDS011;3777;48.722;8.110;2022-10-22T14:42:17;3.60;;;1.73;;
7471;SDS011;3777;48.722;8.110;2022-10-22T14:44:44;2.53;;;1.45;;
7471;SDS011;3777;48.722;8.110;2022-10-22T14:47:11;3.03;;;1.90;;
7471;SDS011;3777;48.722;8.110;2022-10-22T14:49:38;2.63;;;1.38;;
7471;SDS011;3777;48.722;8.110;2022-10-22T14:52:05;4.45;;;1.85;;
7471;SDS011;3777;48.722;8.110;2022-10-22T14:54:32;3.28;;;1.50;;
7471;SDS011;3777;48.722;8.110;2022-10-22T14:57:01;3.30;;;1.60;;
7471;SDS011;3777;48.722;8.110;2022-10-22T14:59:29;3.75;;;1.42;;
7471;SDS011;3777;48.722;8.110;2022-10-22T15:01:56;4.95;;;1.90;;
7471;SDS011;3777;48.722;8.110;2022-10-22T15:04:23;4.93;;;1.35;;
7471;SDS011;3777;48.722;8.110;2022-10-22T15:06:51;1.98;;;1.38;;
7471;SDS011;3777;48.722;8.110;2022-10-22T15:09:20;2.65;;;1.48;;
7471;SDS011;3777;48.722;8.110;2022-10-22T15:11:48;3.13;;;1.60;;
7471;SDS011;3777;48.722;8.110;2022-10-22T15:14:16;3.05;;;1.60;;
7471;SDS011;3777;48.722;8.110;2022-10-22T15:16:43;4.15;;;1.52;;
7471;SDS011;3777;48.722;8.110;2022-10-22T15:19:10;3.30;;;1.38;;
7471;SDS011;3777;48.722;8.110;2022-10-22T15:21:38;3.10;;;1.60;;
7471;SDS011;3777;48.722;8.110;2022-10-22T15:24:05;4.33;;;1.67;;
7471;SDS011;3777;48.722;8.110;2022-10-22T15:26:33;2.95;;;1.50;;
7471;SDS011;3777;48.722;8.110;2022-10-22T15:29:00;3.37;;;1.50;;
7471;SDS011;3777;48.722;8.110;2022-10-22T15:31:42;3.60;;;1.53;;
7471;SDS011;3777;48.722;8.110;2022-10-22T15:34:12;2.90;;;1.47;;
7471;SDS011;3777;48.722;8.110;2022-10-22T15:36:39;2.80;;;1.40;;
7471;SDS011;3777;48.722;8.110;2022-10-22T15:39:06;2.33;;;1.40;;
7471;SDS011;3777;48.722;8.110;2022-10-22T15:41:34;2.33;;;1.67;;
7471;SDS011;3777;48.722;8.110;2022-10-22T15:44:02;2.67;;;1.50;;
7471;SDS011;3777;48.722;8.110;2022-10-22T15:46:30;3.27;;;1.50;;
7471;SDS011;3777;48.722;8.110;2022-10-22T15:48:59;3.10;;;1.63;;
7471;SDS011;3777;48.722;8.110;2022-10-22T15:51:26;3.17;;;1.80;;